createdAt,value
2023-05-09T00:00:47.138Z,28.13
2023-05-09T00:03:14.524Z,29.53
2023-05-09T00:05:41.932Z,29.50
2023-05-09T00:08:08.852Z,28.13
2023-05-09T00:10:36.121Z,28.97
2023-05-09T00:13:03.049Z,26.13
2023-05-09T00:15:30.638Z,26.40
2023-05-09T00:17:57.391Z,28.07
2023-05-09T00:20:24.189Z,27.53
2023-05-09T00:22:51.321Z,27.60
2023-05-09T00:25:18.044Z,28.00
2023-05-09T00:27:44.834Z,29.30
2023-05-09T00:30:11.975Z,28.50
2023-05-09T00:32:40.434Z,28.70
2023-05-09T00:35:07.846Z,29.03
2023-05-09T00:37:34.523Z,27.97
2023-05-09T00:40:01.216Z,27.77
2023-05-09T00:42:28.116Z,27.57
2023-05-09T00:44:54.857Z,27.80
2023-05-09T00:47:24.115Z,28.03
2023-05-09T00:49:50.973Z,28.93
2023-05-09T00:52:21.641Z,27.53
2023-05-09T00:54:48.355Z,27.80
2023-05-09T00:57:15.015Z,28.10
2023-05-09T00:59:42.025Z,27.20
2023-05-09T01:02:08.758Z,28.50
2023-05-09T01:04:35.581Z,28.90
2023-05-09T01:07:04.824Z,29.43
2023-05-09T01:09:55.545Z,29.67
2023-05-09T01:12:28.253Z,28.23
2023-05-09T01:15:04.750Z,29.47
2023-05-09T01:17:47.209Z,28.43
2023-05-09T01:20:34.378Z,28.63
2023-05-09T01:23:10.647Z,29.60
2023-05-09T01:25:40.806Z,28.53
2023-05-09T01:28:16.955Z,28.67
2023-05-09T01:30:45.802Z,28.17
2023-05-09T01:33:16.804Z,29.13
2023-05-09T01:35:44.888Z,28.67
2023-05-09T01:38:17.478Z,28.43
2023-05-09T01:40:46.041Z,28.13
2023-05-09T01:43:15.199Z,29.13
2023-05-09T01:45:42.627Z,27.70
2023-05-09T01:48:09.898Z,27.90
2023-05-09T01:50:37.905Z,28.13
2023-05-09T01:53:05.915Z,28.63
2023-05-09T01:55:34.330Z,29.27
2023-05-09T01:58:01.295Z,29.63
2023-05-09T02:00:28.150Z,29.60
2023-05-09T02:02:55.518Z,29.00
2023-05-09T02:05:25.031Z,27.80
2023-05-09T02:07:52.422Z,28.47
2023-05-09T02:10:21.016Z,27.13
2023-05-09T02:12:47.799Z,28.07
2023-05-09T02:15:15.290Z,27.87
2023-05-09T02:17:42.817Z,28.20
2023-05-09T02:20:10.360Z,28.33
2023-05-09T02:22:37.839Z,28.60
2023-05-09T02:25:07.629Z,27.40
2023-05-09T02:27:34.988Z,28.37
2023-05-09T02:30:04.579Z,28.00
2023-05-09T02:32:32.885Z,27.50
2023-05-09T02:35:01.048Z,29.90
2023-05-09T02:37:28.218Z,29.10
2023-05-09T02:39:55.189Z,29.13
2023-05-09T02:42:25.420Z,28.93
2023-05-09T02:44:55.638Z,29.70
2023-05-09T02:47:22.694Z,29.30
2023-05-09T02:49:49.446Z,29.13
2023-05-09T02:52:16.297Z,30.93
2023-05-09T02:54:43.110Z,30.40
2023-05-09T02:57:09.904Z,30.47
2023-05-09T02:59:36.704Z,31.00
2023-05-09T03:02:03.444Z,29.77
2023-05-09T03:04:30.867Z,30.40
2023-05-09T03:06:57.720Z,31.17
2023-05-09T03:09:29.728Z,28.93
2023-05-09T03:11:57.031Z,31.37
2023-05-09T03:14:24.032Z,31.93
2023-05-09T03:16:50.814Z,31.17
2023-05-09T03:19:26.082Z,34.33
2023-05-09T03:21:53.144Z,33.40
2023-05-09T03:24:20.058Z,34.10
2023-05-09T03:26:47.692Z,33.47
2023-05-09T03:29:14.385Z,36.43
2023-05-09T03:31:41.130Z,34.23
2023-05-09T03:34:13.114Z,34.87
2023-05-09T03:36:40.023Z,33.80
2023-05-09T03:39:07.105Z,33.93
2023-05-09T03:41:36.184Z,33.27
2023-05-09T03:44:03.837Z,33.97
2023-05-09T03:46:30.610Z,31.80
2023-05-09T03:48:57.784Z,32.90
2023-05-09T03:51:24.565Z,33.93
2023-05-09T03:53:52.227Z,34.60
2023-05-09T03:56:20.076Z,34.27
2023-05-09T03:58:50.613Z,35.00
2023-05-09T04:01:18.268Z,34.73
2023-05-09T04:03:46.233Z,35.40
2023-05-09T04:06:15.266Z,34.17
2023-05-09T04:08:44.063Z,34.47
2023-05-09T04:11:10.992Z,34.83
2023-05-09T04:13:40.577Z,34.67
2023-05-09T04:16:20.594Z,33.17
2023-05-09T04:18:47.328Z,34.37
2023-05-09T04:21:14.778Z,34.23
2023-05-09T04:23:43.878Z,34.50
2023-05-09T04:26:14.074Z,34.00
2023-05-09T04:28:42.451Z,35.37
2023-05-09T04:31:10.161Z,37.23
2023-05-09T04:33:38.549Z,36.13
2023-05-09T04:36:05.575Z,34.40
2023-05-09T04:38:32.833Z,35.67
2023-05-09T04:41:00.118Z,33.80
2023-05-09T04:43:28.241Z,34.63
2023-05-09T04:45:55.107Z,36.57
2023-05-09T04:48:21.961Z,35.07
2023-05-09T04:50:49.955Z,36.27
2023-05-09T04:53:16.629Z,35.60
2023-05-09T04:55:45.005Z,33.87
2023-05-09T04:58:11.984Z,35.50
2023-05-09T05:00:39.159Z,33.07
2023-05-09T05:03:07.663Z,32.33
2023-05-09T05:05:37.111Z,32.97
2023-05-09T05:08:05.163Z,32.33
2023-05-09T05:10:35.885Z,30.40
2023-05-09T05:13:07.155Z,32.00
2023-05-09T05:15:36.116Z,29.70
2023-05-09T05:18:03.834Z,30.00
2023-05-09T05:20:34.110Z,30.40
2023-05-09T05:23:01.282Z,28.30
2023-05-09T05:25:29.078Z,28.70
2023-05-09T05:27:57.568Z,27.80
2023-05-09T05:30:24.340Z,27.43
2023-05-09T05:32:51.443Z,27.40
2023-05-09T05:35:23.433Z,25.70
2023-05-09T05:37:51.167Z,26.17
2023-05-09T05:40:18.188Z,24.63
2023-05-09T05:42:48.099Z,24.13
2023-05-09T05:45:15.173Z,23.73
2023-05-09T05:47:46.593Z,22.77
2023-05-09T05:50:14.190Z,22.67
2023-05-09T05:52:41.732Z,23.87
2023-05-09T05:55:12.121Z,21.67
2023-05-09T05:57:39.437Z,22.93
2023-05-09T06:00:12.050Z,21.80
2023-05-09T06:02:50.077Z,22.50
2023-05-09T06:05:47.387Z,21.70
2023-05-09T06:08:14.332Z,21.50
2023-05-09T06:10:41.090Z,20.30
2023-05-09T06:13:07.961Z,19.63
2023-05-09T06:15:37.030Z,18.60
2023-05-09T06:18:03.970Z,17.83
2023-05-09T06:20:30.766Z,17.33
2023-05-09T06:22:57.683Z,16.10
2023-05-09T06:25:24.420Z,14.97
2023-05-09T06:27:52.343Z,13.47
2023-05-09T06:30:26.434Z,13.53
2023-05-09T06:32:54.706Z,13.83
2023-05-09T06:35:21.850Z,13.00
2023-05-09T06:37:49.230Z,12.73
2023-05-09T06:40:16.715Z,11.43
2023-05-09T06:42:43.613Z,11.03
2023-05-09T06:45:10.728Z,10.30
2023-05-09T06:47:37.578Z,10.30
2023-05-09T06:50:04.467Z,9.67
2023-05-09T06:52:31.399Z,9.07
2023-05-09T06:54:58.206Z,8.60
2023-05-09T06:57:25.260Z,9.17
2023-05-09T06:59:52.010Z,9.07
2023-05-09T07:02:18.726Z,9.07
2023-05-09T07:04:45.510Z,8.70
2023-05-09T07:07:12.505Z,8.97
2023-05-09T07:09:39.326Z,8.47
2023-05-09T07:12:06.288Z,8.43
2023-05-09T07:14:33.060Z,7.80
2023-05-09T07:17:13.782Z,8.50
2023-05-09T07:19:46.701Z,8.67
2023-05-09T07:22:13.782Z,8.83
2023-05-09T07:24:40.946Z,7.53
2023-05-09T07:27:07.875Z,7.70
2023-05-09T07:29:34.621Z,7.53
2023-05-09T07:32:01.616Z,7.60
2023-05-09T07:34:28.941Z,6.97
2023-05-09T07:36:55.861Z,6.80
2023-05-09T07:39:22.636Z,6.40
2023-05-09T07:41:49.599Z,7.10
2023-05-09T07:44:16.544Z,6.70
2023-05-09T07:46:43.412Z,6.90
2023-05-09T07:49:10.387Z,6.80
2023-05-09T07:51:37.266Z,6.07
2023-05-09T07:54:04.120Z,6.07
2023-05-09T07:56:30.848Z,6.70
2023-05-09T07:58:57.624Z,6.20
2023-05-09T08:01:24.451Z,6.10
2023-05-09T08:03:51.483Z,6.20
2023-05-09T08:06:18.309Z,6.00
2023-05-09T08:08:45.453Z,5.90
2023-05-09T08:11:12.173Z,6.30
2023-05-09T08:13:39.771Z,6.33
2023-05-09T08:16:06.907Z,6.57
2023-05-09T08:18:33.704Z,6.37
2023-05-09T08:21:01.209Z,6.40
2023-05-09T08:23:28.440Z,6.43
2023-05-09T08:25:55.518Z,5.03
2023-05-09T08:28:24.436Z,4.80
2023-05-09T08:30:51.930Z,4.10
2023-05-09T08:33:19.191Z,3.57
2023-05-09T08:35:46.309Z,3.50
2023-05-09T08:38:13.234Z,3.30
2023-05-09T08:40:40.997Z,3.20
2023-05-09T08:43:08.027Z,3.57
2023-05-09T08:45:55.125Z,2.70
2023-05-09T08:48:22.975Z,2.90
2023-05-09T08:50:50.232Z,2.37
2023-05-09T08:53:17.173Z,2.67
2023-05-09T08:55:44.004Z,2.47
2023-05-09T08:58:11.142Z,2.80
2023-05-09T09:00:39.026Z,2.40
2023-05-09T09:03:06.878Z,2.73
2023-05-09T09:05:41.818Z,2.97
2023-05-09T09:08:10.366Z,3.10
2023-05-09T09:10:39.588Z,3.33
2023-05-09T09:13:07.514Z,3.93
2023-05-09T09:15:36.317Z,3.30
2023-05-09T09:18:08.166Z,3.27
2023-05-09T09:20:43.780Z,3.47
2023-05-09T09:23:11.579Z,3.60
2023-05-09T09:25:38.815Z,3.70
2023-05-09T09:28:05.889Z,3.40
2023-05-09T09:30:32.960Z,3.93
2023-05-09T09:33:00.504Z,3.20
2023-05-09T09:35:27.703Z,2.90
2023-05-09T09:38:00.124Z,2.73
2023-05-09T09:40:27.094Z,2.53
2023-05-09T09:42:54.044Z,2.70
2023-05-09T09:45:21.427Z,2.80
2023-05-09T09:47:50.104Z,2.60
2023-05-09T09:50:23.522Z,2.80
2023-05-09T09:52:56.009Z,2.40
2023-05-09T09:55:24.238Z,3.23
2023-05-09T09:57:51.665Z,2.77
2023-05-09T10:00:20.170Z,2.40
2023-05-09T10:03:00.475Z,2.80
2023-05-09T10:05:31.322Z,2.70
2023-05-09T10:07:59.500Z,2.93
2023-05-09T10:10:27.138Z,3.30
2023-05-09T10:12:55.960Z,3.10
2023-05-09T10:15:23.083Z,2.90
2023-05-09T10:18:01.181Z,3.50
2023-05-09T10:20:28.792Z,3.67
2023-05-09T10:23:01.310Z,3.43
2023-05-09T10:25:32.997Z,3.03
2023-05-09T10:28:00.832Z,3.00
2023-05-09T10:30:40.218Z,3.30
2023-05-09T10:33:13.560Z,3.30
2023-05-09T10:35:41.701Z,2.90
2023-05-09T10:38:10.083Z,3.00
2023-05-09T10:40:37.307Z,2.73
2023-05-09T10:43:05.538Z,2.47
2023-05-09T10:45:32.363Z,2.20
2023-05-09T10:47:59.717Z,2.67
2023-05-09T10:50:27.015Z,2.50
2023-05-09T10:53:11.641Z,2.60
2023-05-09T10:55:47.837Z,2.10
2023-05-09T10:58:36.356Z,2.37
2023-05-09T11:01:03.996Z,2.50
2023-05-09T11:03:51.187Z,2.20
2023-05-09T11:06:37.004Z,2.10
2023-05-09T11:09:22.611Z,2.93
2023-05-09T11:11:53.372Z,3.03
2023-05-09T11:14:35.892Z,3.10
2023-05-09T11:17:04.497Z,2.97
2023-05-09T11:19:46.601Z,3.13
2023-05-09T11:22:16.183Z,3.07
2023-05-09T11:24:47.108Z,3.10
2023-05-09T11:27:16.973Z,3.53
2023-05-09T11:29:51.092Z,3.70
2023-05-09T11:32:18.134Z,3.47
2023-05-09T11:34:45.853Z,3.60
2023-05-09T11:37:13.664Z,4.00
2023-05-09T11:40:00.341Z,3.90
2023-05-09T11:42:30.005Z,4.30
2023-05-09T11:44:57.792Z,4.30
2023-05-09T11:47:25.192Z,4.23
2023-05-09T11:49:52.231Z,4.60
2023-05-09T11:52:20.219Z,4.30
2023-05-09T11:54:47.129Z,3.37
2023-05-09T11:57:17.649Z,3.77
2023-05-09T11:59:45.671Z,3.90
2023-05-09T12:02:13.106Z,4.10
2023-05-09T12:04:40.163Z,3.43
2023-05-09T12:07:06.993Z,4.00
2023-05-09T12:09:34.622Z,3.83
2023-05-09T12:12:01.495Z,4.13
2023-05-09T12:14:28.728Z,4.17
2023-05-09T12:16:56.101Z,4.40
2023-05-09T12:19:23.536Z,4.90
2023-05-09T12:21:54.381Z,5.47
2023-05-09T12:24:22.060Z,5.90
2023-05-09T12:26:49.612Z,5.67
2023-05-09T12:29:17.133Z,5.80
2023-05-09T12:31:44.107Z,6.23
2023-05-09T12:34:11.312Z,6.37
2023-05-09T12:36:38.585Z,6.90
2023-05-09T12:39:11.683Z,6.47
2023-05-09T12:41:53.887Z,7.33
2023-05-09T12:44:30.101Z,6.80
2023-05-09T12:46:58.843Z,7.23
2023-05-09T12:49:26.172Z,7.60
2023-05-09T12:51:53.767Z,7.53
2023-05-09T12:54:24.840Z,7.07
2023-05-09T12:56:57.031Z,6.80
2023-05-09T12:59:25.203Z,6.73
2023-05-09T13:01:54.195Z,7.13
2023-05-09T13:04:21.761Z,7.27
2023-05-09T13:06:50.702Z,7.30
2023-05-09T13:09:18.394Z,7.27
2023-05-09T13:11:46.812Z,7.00
2023-05-09T13:14:13.950Z,7.77
2023-05-09T13:16:41.183Z,8.20
2023-05-09T13:19:08.222Z,7.53
2023-05-09T13:21:35.217Z,6.60
2023-05-09T13:24:02.139Z,6.63
2023-05-09T13:26:29.700Z,6.10
2023-05-09T13:28:56.914Z,6.50
2023-05-09T13:31:24.291Z,6.70
2023-05-09T13:33:51.925Z,5.90
2023-05-09T13:36:19.286Z,6.73
2023-05-09T13:38:46.390Z,6.30
2023-05-09T13:41:20.537Z,5.93
2023-05-09T13:43:47.499Z,6.20
2023-05-09T13:46:14.520Z,6.27
2023-05-09T13:48:42.101Z,5.60
2023-05-09T13:51:10.466Z,5.40
2023-05-09T13:53:39.062Z,5.80
2023-05-09T13:56:07.514Z,5.13
2023-05-09T13:58:37.644Z,5.50
2023-05-09T14:01:04.666Z,5.23
2023-05-09T14:03:32.095Z,5.57
2023-05-09T14:05:59.007Z,5.83
2023-05-09T14:08:26.007Z,5.43
2023-05-09T14:10:53.157Z,6.00
2023-05-09T14:13:20.818Z,6.40
2023-05-09T14:15:47.839Z,6.33
2023-05-09T14:18:17.130Z,5.50
2023-05-09T14:20:46.328Z,4.33
2023-05-09T14:23:13.717Z,4.67
2023-05-09T14:25:40.490Z,5.80
2023-05-09T14:28:09.633Z,5.60
2023-05-09T14:30:36.807Z,4.07
2023-05-09T14:33:03.845Z,4.60
2023-05-09T14:35:33.018Z,5.10
2023-05-09T14:38:00.196Z,4.40
2023-05-09T14:40:32.046Z,4.90
2023-05-09T14:42:59.426Z,3.83
2023-05-09T14:45:26.696Z,4.47
2023-05-09T14:47:53.866Z,4.30
2023-05-09T14:50:21.801Z,4.40
2023-05-09T14:52:49.064Z,3.77
2023-05-09T14:55:16.018Z,3.73
2023-05-09T14:57:42.795Z,3.63
2023-05-09T15:00:20.290Z,2.30
2023-05-09T15:02:48.028Z,2.43
2023-05-09T15:05:15.001Z,2.70
2023-05-09T15:07:41.790Z,1.90
2023-05-09T15:10:08.670Z,2.07
2023-05-09T15:12:35.893Z,2.00
2023-05-09T15:15:15.913Z,2.37
2023-05-09T15:17:43.626Z,2.30
2023-05-09T15:20:17.915Z,2.90
2023-05-09T15:22:45.604Z,0.10
2023-05-09T15:25:12.518Z,0.10
2023-05-09T15:27:40.217Z,0.10
2023-05-09T15:30:07.410Z,0.00
2023-05-09T15:32:34.825Z,0.10
2023-05-09T15:35:01.685Z,0.10
2023-05-09T15:37:28.694Z,0.10
2023-05-09T15:39:55.771Z,0.10
2023-05-09T15:42:22.875Z,0.10
2023-05-09T15:44:49.923Z,0.10
2023-05-09T15:47:16.851Z,0.10
2023-05-09T15:49:43.580Z,0.10
2023-05-09T15:52:13.557Z,0.13
2023-05-09T15:54:40.560Z,0.20
2023-05-09T15:57:08.456Z,0.10
2023-05-09T15:59:36.066Z,0.67
2023-05-09T16:02:03.961Z,0.10
2023-05-09T16:04:31.868Z,0.10
2023-05-09T16:07:01.274Z,0.10
2023-05-09T16:09:28.757Z,0.17
2023-05-09T16:11:56.544Z,0.10
2023-05-09T16:14:23.616Z,0.10
2023-05-09T16:16:51.882Z,0.10
2023-05-09T16:19:19.904Z,0.10
2023-05-09T16:21:55.022Z,0.10
2023-05-09T16:24:21.893Z,0.10
2023-05-09T16:26:48.711Z,0.10
2023-05-09T16:29:15.696Z,0.13
2023-05-09T16:31:45.055Z,0.10
2023-05-09T16:34:12.212Z,0.10
2023-05-09T16:36:39.673Z,0.00
2023-05-09T16:39:06.486Z,0.10
2023-05-09T16:41:33.354Z,0.10
2023-05-09T16:44:00.454Z,0.00
2023-05-09T16:46:27.397Z,0.10
2023-05-09T16:48:54.269Z,0.10
2023-05-09T16:51:21.270Z,0.10
2023-05-09T16:53:48.346Z,0.10
2023-05-09T16:56:15.227Z,0.20
2023-05-09T16:58:43.349Z,0.10
2023-05-09T17:01:10.160Z,0.10
2023-05-09T17:03:37.193Z,0.10
2023-05-09T17:06:04.045Z,0.10
2023-05-09T17:08:30.761Z,0.17
2023-05-09T17:10:58.044Z,0.10
2023-05-09T17:13:25.053Z,0.10
2023-05-09T17:15:52.898Z,0.10
2023-05-09T17:18:33.402Z,0.10
2023-05-09T17:21:03.664Z,0.10
2023-05-09T17:23:31.167Z,0.10
2023-05-09T17:25:57.946Z,0.10
2023-05-09T17:28:24.908Z,0.13
2023-05-09T17:30:51.986Z,0.10
2023-05-09T17:33:19.518Z,0.10
2023-05-09T17:35:49.616Z,0.10
2023-05-09T17:38:17.054Z,0.10
2023-05-09T17:40:44.514Z,0.10
2023-05-09T17:43:11.492Z,0.10
2023-05-09T17:45:38.368Z,0.10
2023-05-09T17:48:05.184Z,0.10
2023-05-09T17:50:31.874Z,0.10
2023-05-09T17:52:58.890Z,0.10
2023-05-09T17:55:25.857Z,0.10
2023-05-09T17:57:52.636Z,0.20
2023-05-09T18:00:19.940Z,0.10
2023-05-09T18:02:48.275Z,0.10
2023-05-09T18:05:15.139Z,0.10
2023-05-09T18:07:41.881Z,0.10
2023-05-09T18:10:09.532Z,0.30
2023-05-09T18:12:37.368Z,0.10
2023-05-09T18:15:05.016Z,0.10
2023-05-09T18:17:32.089Z,0.10
2023-05-09T18:19:59.215Z,0.10
2023-05-09T18:22:26.557Z,0.10
2023-05-09T18:24:53.382Z,0.23
2023-05-09T18:27:20.169Z,0.10
2023-05-09T18:29:47.688Z,0.10
2023-05-09T18:32:14.602Z,0.10
2023-05-09T18:34:42.181Z,0.10
2023-05-09T18:37:10.257Z,0.10
2023-05-09T18:39:37.473Z,0.10
2023-05-09T18:42:06.228Z,0.10
2023-05-09T18:44:32.990Z,0.10
2023-05-09T18:47:00.175Z,0.10
2023-05-09T18:49:27.372Z,0.10
2023-05-09T18:51:55.183Z,0.10
2023-05-09T18:54:22.164Z,0.10
2023-05-09T18:56:49.948Z,0.10
2023-05-09T18:59:17.632Z,0.10
2023-05-09T19:01:44.581Z,0.10
2023-05-09T19:04:11.643Z,0.10
2023-05-09T19:06:39.255Z,0.10
2023-05-09T19:09:06.446Z,0.10
2023-05-09T19:11:33.770Z,0.20
2023-05-09T19:14:00.829Z,0.10
2023-05-09T19:16:28.173Z,0.10
2023-05-09T19:18:56.436Z,0.10
2023-05-09T19:21:24.353Z,0.20
2023-05-09T19:23:51.396Z,0.30
2023-05-09T19:26:19.163Z,0.10
2023-05-09T19:28:47.076Z,0.10
2023-05-09T19:31:15.112Z,0.10
2023-05-09T19:33:42.992Z,0.10
2023-05-09T19:36:09.993Z,0.23
2023-05-09T19:38:37.093Z,0.20
2023-05-09T19:41:07.150Z,0.10
2023-05-09T19:43:34.167Z,0.10
2023-05-09T19:46:01.351Z,0.10
2023-05-09T19:48:28.739Z,0.10
2023-05-09T19:50:58.385Z,0.10
2023-05-09T19:53:25.792Z,0.10
2023-05-09T19:55:52.899Z,0.10
2023-05-09T19:58:20.226Z,0.10
2023-05-09T20:00:47.213Z,0.00
2023-05-09T20:03:14.383Z,0.00
2023-05-09T20:05:41.421Z,0.83
2023-05-09T20:08:08.241Z,0.10
2023-05-09T20:10:35.151Z,0.10
2023-05-09T20:13:04.796Z,0.07
2023-05-09T20:15:31.750Z,0.10
2023-05-09T20:17:58.913Z,0.10
2023-05-09T20:20:25.764Z,0.10
2023-05-09T20:22:52.599Z,0.10
2023-05-09T20:25:19.722Z,0.10
2023-05-09T20:27:46.718Z,0.10
2023-05-09T20:30:13.810Z,0.10
2023-05-09T20:32:40.840Z,0.10
2023-05-09T20:35:07.714Z,0.10
2023-05-09T20:37:34.458Z,0.10
2023-05-09T20:40:01.884Z,0.10
2023-05-09T20:42:28.674Z,0.10
2023-05-09T20:44:55.343Z,0.30
2023-05-09T20:47:22.110Z,0.30
2023-05-09T20:49:48.779Z,0.20
2023-05-09T20:52:15.673Z,0.10
2023-05-09T20:54:42.521Z,0.10
2023-05-09T20:57:09.321Z,0.10
2023-05-09T20:59:36.439Z,0.10
2023-05-09T21:02:03.180Z,0.10
2023-05-09T21:04:29.944Z,0.10
2023-05-09T21:06:56.831Z,0.10
2023-05-09T21:09:23.535Z,0.20
2023-05-09T21:11:50.283Z,0.10
2023-05-09T21:14:17.039Z,0.10
2023-05-09T21:16:44.129Z,0.10
2023-05-09T21:19:11.030Z,0.10
2023-05-09T21:21:37.742Z,0.37
2023-05-09T21:24:09.083Z,0.10
2023-05-09T21:26:36.627Z,0.10
2023-05-09T21:29:03.371Z,0.30
2023-05-09T21:31:30.059Z,0.10
2023-05-09T21:33:58.906Z,0.10
2023-05-09T21:36:25.921Z,0.47
2023-05-09T21:38:52.586Z,0.10
2023-05-09T21:41:19.342Z,0.30
2023-05-09T21:43:46.323Z,0.10
2023-05-09T21:46:13.076Z,0.10
2023-05-09T21:48:39.901Z,0.10
2023-05-09T21:51:08.493Z,0.53
2023-05-09T21:53:35.281Z,0.10
2023-05-09T21:56:02.388Z,0.60
2023-05-09T21:58:29.117Z,0.10
2023-05-09T22:00:55.857Z,0.10
2023-05-09T22:03:23.565Z,0.10
2023-05-09T22:05:50.380Z,0.17
2023-05-09T22:08:17.152Z,0.30
2023-05-09T22:10:43.913Z,0.10
2023-05-09T22:13:11.202Z,0.10
2023-05-09T22:15:37.951Z,0.10
2023-05-09T22:18:04.846Z,0.10
2023-05-09T22:20:31.598Z,0.13
2023-05-09T22:22:58.327Z,0.20
2023-05-09T22:25:25.036Z,0.67
2023-05-09T22:27:51.757Z,0.10
2023-05-09T22:30:18.812Z,0.10
2023-05-09T22:32:46.070Z,0.10
2023-05-09T22:35:12.864Z,0.10
2023-05-09T22:37:39.546Z,0.30
2023-05-09T22:40:06.725Z,0.10
2023-05-09T22:42:34.896Z,1.07
2023-05-09T22:45:01.777Z,0.20
2023-05-09T22:47:29.021Z,0.10
2023-05-09T22:49:56.087Z,0.10
2023-05-09T22:52:22.798Z,0.20
2023-05-09T22:54:49.475Z,0.67
2023-05-09T22:57:19.332Z,0.10
2023-05-09T22:59:46.819Z,0.20
2023-05-09T23:02:13.656Z,0.10
2023-05-09T23:04:40.510Z,0.20
2023-05-09T23:07:07.897Z,0.97
2023-05-09T23:09:34.980Z,0.67
2023-05-09T23:12:02.749Z,0.10
2023-05-09T23:14:30.549Z,0.10
2023-05-09T23:16:57.303Z,0.10
2023-05-09T23:19:24.044Z,0.10
2023-05-09T23:21:50.791Z,0.10
2023-05-09T23:24:17.751Z,0.20
2023-05-09T23:26:45.225Z,0.10
2023-05-09T23:29:12.125Z,0.10
2023-05-09T23:31:39.247Z,0.33
2023-05-09T23:34:06.309Z,0.10
2023-05-09T23:36:33.062Z,0.10
2023-05-09T23:38:59.812Z,0.13
2023-05-09T23:41:26.702Z,0.10
2023-05-09T23:43:53.786Z,0.10
2023-05-09T23:46:20.654Z,0.10
2023-05-09T23:48:47.389Z,0.37
2023-05-09T23:51:14.324Z,0.20
2023-05-09T23:53:41.334Z,0.10
2023-05-09T23:56:08.409Z,0.30
2023-05-09T23:58:35.153Z,0.83
